sensor_id;sensor_type;location;lat;lon;timestamp;temperature;humidity
49218;DHT22;35045;51.194;7.268;2022-10-16T00:01:27;13.90;99.90
49218;DHT22;35045;51.194;7.268;2022-10-16T00:03:54;13.90;99.90
49218;DHT22;35045;51.194;7.268;2022-10-16T00:06:22;13.80;99.90
49218;DHT22;35045;51.194;7.268;2022-10-16T00:08:49;13.80;99.90
49218;DHT22;35045;51.194;7.268;2022-10-16T00:11:33;13.80;99.90
49218;DHT22;35045;51.194;7.268;2022-10-16T00:14:01;13.80;99.90
49218;DHT22;35045;51.194;7.268;2022-10-16T00:16:28;13.80;99.90
49218;DHT22;35045;51.194;7.268;2022-10-16T00:18:55;13.80;99.90
49218;DHT22;35045;51.194;7.268;2022-10-16T00:21:24;13.80;99.90
49218;DHT22;35045;51.194;7.268;2022-10-16T00:23:52;13.70;99.90
49218;DHT22;35045;51.194;7.268;2022-10-16T00:26:19;13.70;99.90
49218;DHT22;35045;51.194;7.268;2022-10-16T00:28:50;13.70;99.90
49218;DHT22;35045;51.194;7.268;2022-10-16T00:31:19;13.70;99.90
49218;DHT22;35045;51.194;7.268;2022-10-16T00:33:46;13.70;99.90
49218;DHT22;35045;51.194;7.268;2022-10-16T00:36:16;13.70;99.90
49218;DHT22;35045;51.194;7.268;2022-10-16T00:38:42;13.70;99.90
49218;DHT22;35045;51.194;7.268;2022-10-16T00:41:15;13.70;99.90
49218;DHT22;35045;51.194;7.268;2022-10-16T00:46:22;13.70;99.90
49218;DHT22;35045;51.194;7.268;2022-10-16T00:48:57;13.70;99.90
49218;DHT22;35045;51.194;7.268;2022-10-16T00:51:32;13.70;99.90
49218;DHT22;35045;51.194;7.268;2022-10-16T00:54:00;13.60;99.90
49218;DHT22;35045;51.194;7.268;2022-10-16T00:56:27;13.70;99.90
49218;DHT22;35045;51.194;7.268;2022-10-16T00:58:53;13.60;99.90
49218;DHT22;35045;51.194;7.268;2022-10-16T01:01:19;13.60;99.90
49218;DHT22;35045;51.194;7.268;2022-10-16T01:03:45;13.60;99.90
49218;DHT22;35045;51.194;7.268;2022-10-16T01:06:32;13.60;99.90
49218;DHT22;35045;51.194;7.268;2022-10-16T01:09:18;13.60;99.90
49218;DHT22;35045;51.194;7.268;2022-10-16T01:14:42;13.60;99.90
49218;DHT22;35045;51.194;7.268;2022-10-16T01:17:15;13.60;99.90
49218;DHT22;35045;51.194;7.268;2022-10-16T01:19:58;13.60;99.90
49218;DHT22;35045;51.194;7.268;2022-10-16T01:22:43;13.60;99.90
49218;DHT22;35045;51.194;7.268;2022-10-16T01:25:21;13.60;99.90
49218;DHT22;35045;51.194;7.268;2022-10-16T01:27:51;13.50;99.90
49218;DHT22;35045;51.194;7.268;2022-10-16T01:30:24;13.50;99.90
49218;DHT22;35045;51.194;7.268;2022-10-16T01:33:16;13.50;99.90
49218;DHT22;35045;51.194;7.268;2022-10-16T01:35:53;13.50;99.90
49218;DHT22;35045;51.194;7.268;2022-10-16T01:40:56;13.50;99.90
49218;DHT22;35045;51.194;7.268;2022-10-16T01:43:28;13.50;99.90
49218;DHT22;35045;51.194;7.268;2022-10-16T01:45:57;13.40;99.90
49218;DHT22;35045;51.194;7.268;2022-10-16T01:48:24;13.50;99.90
49218;DHT22;35045;51.194;7.268;2022-10-16T01:51:11;13.50;99.90
49218;DHT22;35045;51.194;7.268;2022-10-16T01:53:39;13.40;99.90
49218;DHT22;35045;51.194;7.268;2022-10-16T01:56:09;13.50;99.90
49218;DHT22;35045;51.194;7.268;2022-10-16T01:58:41;13.40;99.90
49218;DHT22;35045;51.194;7.268;2022-10-16T02:01:08;13.40;99.90
49218;DHT22;35045;51.194;7.268;2022-10-16T02:03:37;13.40;99.90
49218;DHT22;35045;51.194;7.268;2022-10-16T02:06:06;13.30;99.90
49218;DHT22;35045;51.194;7.268;2022-10-16T02:08:33;13.30;99.90
49218;DHT22;35045;51.194;7.268;2022-10-16T02:11:00;13.30;99.90
49218;DHT22;35045;51.194;7.268;2022-10-16T02:13:35;13.30;99.90
49218;DHT22;35045;51.194;7.268;2022-10-16T02:16:03;13.30;99.90
49218;DHT22;35045;51.194;7.268;2022-10-16T02:18:29;13.30;99.90
49218;DHT22;35045;51.194;7.268;2022-10-16T02:26:13;13.30;99.90
49218;DHT22;35045;51.194;7.268;2022-10-16T02:28:45;13.40;99.90
49218;DHT22;35045;51.194;7.268;2022-10-16T02:31:16;13.30;99.90
49218;DHT22;35045;51.194;7.268;2022-10-16T02:33:45;13.30;99.90
49218;DHT22;35045;51.194;7.268;2022-10-16T02:36:12;13.40;99.90
49218;DHT22;35045;51.194;7.268;2022-10-16T02:38:39;13.30;99.90
49218;DHT22;35045;51.194;7.268;2022-10-16T02:41:05;13.30;99.90
49218;DHT22;35045;51.194;7.268;2022-10-16T02:43:32;13.30;99.90
49218;DHT22;35045;51.194;7.268;2022-10-16T02:46:00;13.30;99.90
49218;DHT22;35045;51.194;7.268;2022-10-16T02:48:26;13.30;99.90
49218;DHT22;35045;51.194;7.268;2022-10-16T02:50:52;13.40;99.90
49218;DHT22;35045;51.194;7.268;2022-10-16T02:53:18;13.40;99.90
49218;DHT22;35045;51.194;7.268;2022-10-16T02:55:44;13.30;99.90
49218;DHT22;35045;51.194;7.268;2022-10-16T02:58:11;13.40;99.90
49218;DHT22;35045;51.194;7.268;2022-10-16T03:00:37;13.40;99.90
49218;DHT22;35045;51.194;7.268;2022-10-16T03:03:03;13.40;99.90
49218;DHT22;35045;51.194;7.268;2022-10-16T03:05:29;13.50;99.90
49218;DHT22;35045;51.194;7.268;2022-10-16T03:07:55;13.40;99.90
49218;DHT22;35045;51.194;7.268;2022-10-16T03:10:21;13.40;99.90
49218;DHT22;35045;51.194;7.268;2022-10-16T03:12:48;13.40;99.90
49218;DHT22;35045;51.194;7.268;2022-10-16T03:15:14;13.40;99.90
49218;DHT22;35045;51.194;7.268;2022-10-16T03:17:40;13.40;99.90
49218;DHT22;35045;51.194;7.268;2022-10-16T03:20:07;13.40;99.90
49218;DHT22;35045;51.194;7.268;2022-10-16T03:22:33;13.30;99.90
49218;DHT22;35045;51.194;7.268;2022-10-16T03:24:59;13.30;99.90
49218;DHT22;35045;51.194;7.268;2022-10-16T03:27:25;13.30;99.90
49218;DHT22;35045;51.194;7.268;2022-10-16T03:29:52;13.30;99.90
49218;DHT22;35045;51.194;7.268;2022-10-16T03:32:18;13.20;99.90
49218;DHT22;35045;51.194;7.268;2022-10-16T03:34:45;13.20;99.90
49218;DHT22;35045;51.194;7.268;2022-10-16T03:37:12;13.20;99.90
49218;DHT22;35045;51.194;7.268;2022-10-16T03:39:38;13.20;99.90
49218;DHT22;35045;51.194;7.268;2022-10-16T03:42:04;13.20;99.90
49218;DHT22;35045;51.194;7.268;2022-10-16T03:44:30;13.20;99.90
49218;DHT22;35045;51.194;7.268;2022-10-16T03:46:56;13.20;99.90
49218;DHT22;35045;51.194;7.268;2022-10-16T03:49:22;13.20;99.90
49218;DHT22;35045;51.194;7.268;2022-10-16T03:51:49;13.20;99.90
49218;DHT22;35045;51.194;7.268;2022-10-16T03:54:15;13.20;99.90
49218;DHT22;35045;51.194;7.268;2022-10-16T03:56:41;13.30;99.90
49218;DHT22;35045;51.194;7.268;2022-10-16T03:59:07;13.30;99.90
49218;DHT22;35045;51.194;7.268;2022-10-16T04:01:33;13.30;99.90
49218;DHT22;35045;51.194;7.268;2022-10-16T04:04:00;13.40;99.90
49218;DHT22;35045;51.194;7.268;2022-10-16T04:06:26;13.40;99.90
49218;DHT22;35045;51.194;7.268;2022-10-16T04:08:52;13.40;99.90
49218;DHT22;35045;51.194;7.268;2022-10-16T04:11:18;13.40;99.90
49218;DHT22;35045;51.194;7.268;2022-10-16T04:13:44;13.40;99.90
49218;DHT22;35045;51.194;7.268;2022-10-16T04:16:10;13.40;99.90
49218;DHT22;35045;51.194;7.268;2022-10-16T04:18:36;13.40;99.90
49218;DHT22;35045;51.194;7.268;2022-10-16T04:21:04;13.30;99.90
49218;DHT22;35045;51.194;7.268;2022-10-16T04:23:31;13.30;99.90
49218;DHT22;35045;51.194;7.268;2022-10-16T04:25:57;13.30;99.90
49218;DHT22;35045;51.194;7.268;2022-10-16T04:28:23;13.30;99.90
49218;DHT22;35045;51.194;7.268;2022-10-16T04:30:50;13.20;99.90
49218;DHT22;35045;51.194;7.268;2022-10-16T04:33:16;13.20;99.90
49218;DHT22;35045;51.194;7.268;2022-10-16T04:35:42;13.20;99.90
49218;DHT22;35045;51.194;7.268;2022-10-16T04:38:08;13.20;99.90
49218;DHT22;35045;51.194;7.268;2022-10-16T04:40:35;13.20;99.90
49218;DHT22;35045;51.194;7.268;2022-10-16T04:43:04;13.20;99.90
49218;DHT22;35045;51.194;7.268;2022-10-16T04:45:31;13.20;99.90
49218;DHT22;35045;51.194;7.268;2022-10-16T04:47:58;13.30;99.90
49218;DHT22;35045;51.194;7.268;2022-10-16T04:50:25;13.30;99.90
49218;DHT22;35045;51.194;7.268;2022-10-16T04:52:51;13.30;99.90
49218;DHT22;35045;51.194;7.268;2022-10-16T04:55:17;13.20;99.90
49218;DHT22;35045;51.194;7.268;2022-10-16T04:57:43;13.20;99.90
49218;DHT22;35045;51.194;7.268;2022-10-16T05:00:10;13.20;99.90
49218;DHT22;35045;51.194;7.268;2022-10-16T05:02:36;13.20;99.90
49218;DHT22;35045;51.194;7.268;2022-10-16T05:05:02;13.20;99.90
49218;DHT22;35045;51.194;7.268;2022-10-16T05:07:29;13.10;99.90
49218;DHT22;35045;51.194;7.268;2022-10-16T05:09:55;13.10;99.90
49218;DHT22;35045;51.194;7.268;2022-10-16T05:12:21;13.10;99.90
49218;DHT22;35045;51.194;7.268;2022-10-16T05:14:47;13.00;99.90
49218;DHT22;35045;51.194;7.268;2022-10-16T05:17:13;13.00;99.90
49218;DHT22;35045;51.194;7.268;2022-10-16T05:19:39;13.00;99.90
49218;DHT22;35045;51.194;7.268;2022-10-16T05:22:05;13.00;99.90
49218;DHT22;35045;51.194;7.268;2022-10-16T05:24:32;13.00;99.90
49218;DHT22;35045;51.194;7.268;2022-10-16T05:26:58;12.90;99.90
49218;DHT22;35045;51.194;7.268;2022-10-16T05:29:24;13.00;99.90
49218;DHT22;35045;51.194;7.268;2022-10-16T05:31:51;12.90;99.90
49218;DHT22;35045;51.194;7.268;2022-10-16T05:34:19;12.90;99.90
49218;DHT22;35045;51.194;7.268;2022-10-16T05:36:46;12.90;99.90
49218;DHT22;35045;51.194;7.268;2022-10-16T05:39:14;12.90;99.90
49218;DHT22;35045;51.194;7.268;2022-10-16T05:41:40;12.90;99.90
49218;DHT22;35045;51.194;7.268;2022-10-16T05:44:07;12.90;99.90
49218;DHT22;35045;51.194;7.268;2022-10-16T05:46:33;12.90;99.90
49218;DHT22;35045;51.194;7.268;2022-10-16T05:48:59;12.90;99.90
49218;DHT22;35045;51.194;7.268;2022-10-16T05:51:25;12.90;99.90
49218;DHT22;35045;51.194;7.268;2022-10-16T05:53:52;12.90;99.90
49218;DHT22;35045;51.194;7.268;2022-10-16T05:56:18;12.90;99.90
49218;DHT22;35045;51.194;7.268;2022-10-16T05:58:45;12.90;99.90
49218;DHT22;35045;51.194;7.268;2022-10-16T06:01:13;12.90;99.90
49218;DHT22;35045;51.194;7.268;2022-10-16T06:03:40;13.00;99.90
49218;DHT22;35045;51.194;7.268;2022-10-16T06:08:39;13.00;99.90
49218;DHT22;35045;51.194;7.268;2022-10-16T06:11:09;13.00;99.90
49218;DHT22;35045;51.194;7.268;2022-10-16T06:13:36;13.10;99.90
49218;DHT22;35045;51.194;7.268;2022-10-16T06:16:03;13.00;99.90
49218;DHT22;35045;51.194;7.268;2022-10-16T06:18:30;13.10;99.90
49218;DHT22;35045;51.194;7.268;2022-10-16T06:20:56;13.10;99.90
49218;DHT22;35045;51.194;7.268;2022-10-16T06:23:23;13.10;99.90
49218;DHT22;35045;51.194;7.268;2022-10-16T06:25:49;13.20;99.90
49218;DHT22;35045;51.194;7.268;2022-10-16T06:28:16;13.20;99.90
49218;DHT22;35045;51.194;7.268;2022-10-16T06:30:42;13.20;99.90
49218;DHT22;35045;51.194;7.268;2022-10-16T06:33:12;13.20;99.90
49218;DHT22;35045;51.194;7.268;2022-10-16T06:35:38;13.30;99.90
49218;DHT22;35045;51.194;7.268;2022-10-16T06:38:04;13.30;99.90
49218;DHT22;35045;51.194;7.268;2022-10-16T06:40:30;13.30;99.90
49218;DHT22;35045;51.194;7.268;2022-10-16T06:42:56;13.40;99.90
49218;DHT22;35045;51.194;7.268;2022-10-16T06:45:23;13.40;99.90
49218;DHT22;35045;51.194;7.268;2022-10-16T06:47:49;13.40;99.90
49218;DHT22;35045;51.194;7.268;2022-10-16T06:50:15;13.40;99.90
49218;DHT22;35045;51.194;7.268;2022-10-16T06:52:41;13.50;99.90
49218;DHT22;35045;51.194;7.268;2022-10-16T06:55:07;13.60;99.90
49218;DHT22;35045;51.194;7.268;2022-10-16T06:57:33;13.80;99.90
49218;DHT22;35045;51.194;7.268;2022-10-16T07:00:00;13.90;99.90
49218;DHT22;35045;51.194;7.268;2022-10-16T07:02:26;14.00;99.90
49218;DHT22;35045;51.194;7.268;2022-10-16T07:04:52;14.00;99.90
49218;DHT22;35045;51.194;7.268;2022-10-16T07:07:18;14.00;99.90
49218;DHT22;35045;51.194;7.268;2022-10-16T07:09:44;14.00;99.90
49218;DHT22;35045;51.194;7.268;2022-10-16T07:12:11;14.00;99.90
49218;DHT22;35045;51.194;7.268;2022-10-16T07:14:37;14.00;99.90
49218;DHT22;35045;51.194;7.268;2022-10-16T07:17:03;14.00;99.90
49218;DHT22;35045;51.194;7.268;2022-10-16T07:19:29;14.10;99.90
49218;DHT22;35045;51.194;7.268;2022-10-16T07:21:57;14.10;99.90
49218;DHT22;35045;51.194;7.268;2022-10-16T07:24:23;14.20;99.90
49218;DHT22;35045;51.194;7.268;2022-10-16T07:26:50;14.30;99.90
49218;DHT22;35045;51.194;7.268;2022-10-16T07:29:19;14.30;99.90
49218;DHT22;35045;51.194;7.268;2022-10-16T07:31:46;14.30;99.90
49218;DHT22;35045;51.194;7.268;2022-10-16T07:34:14;14.30;99.90
49218;DHT22;35045;51.194;7.268;2022-10-16T07:36:41;14.30;99.90
49218;DHT22;35045;51.194;7.268;2022-10-16T07:39:12;14.30;99.90
49218;DHT22;35045;51.194;7.268;2022-10-16T07:41:38;14.30;99.90
49218;DHT22;35045;51.194;7.268;2022-10-16T07:44:04;14.30;99.90
49218;DHT22;35045;51.194;7.268;2022-10-16T07:46:31;14.30;99.90
49218;DHT22;35045;51.194;7.268;2022-10-16T07:48:58;14.30;99.90
49218;DHT22;35045;51.194;7.268;2022-10-16T07:51:25;14.30;99.90
49218;DHT22;35045;51.194;7.268;2022-10-16T07:53:52;14.40;99.90
49218;DHT22;35045;51.194;7.268;2022-10-16T07:56:19;14.40;99.90
49218;DHT22;35045;51.194;7.268;2022-10-16T07:58:46;14.30;99.90
49218;DHT22;35045;51.194;7.268;2022-10-16T08:01:14;14.20;99.90
49218;DHT22;35045;51.194;7.268;2022-10-16T08:03:44;14.20;99.90
49218;DHT22;35045;51.194;7.268;2022-10-16T08:06:11;14.30;99.90
49218;DHT22;35045;51.194;7.268;2022-10-16T08:08:37;14.30;99.90
49218;DHT22;35045;51.194;7.268;2022-10-16T08:11:03;14.40;99.90
49218;DHT22;35045;51.194;7.268;2022-10-16T08:13:30;14.50;99.90
49218;DHT22;35045;51.194;7.268;2022-10-16T08:15:57;14.60;99.90
49218;DHT22;35045;51.194;7.268;2022-10-16T08:18:23;14.70;99.90
49218;DHT22;35045;51.194;7.268;2022-10-16T08:20:56;14.70;99.90
49218;DHT22;35045;51.194;7.268;2022-10-16T08:23:24;14.80;99.90
49218;DHT22;35045;51.194;7.268;2022-10-16T08:25:53;14.90;99.90
49218;DHT22;35045;51.194;7.268;2022-10-16T08:28:19;15.00;99.90
49218;DHT22;35045;51.194;7.268;2022-10-16T08:30:46;15.00;99.90
49218;DHT22;35045;51.194;7.268;2022-10-16T08:33:12;15.10;99.90
49218;DHT22;35045;51.194;7.268;2022-10-16T08:35:38;15.10;99.90
49218;DHT22;35045;51.194;7.268;2022-10-16T08:38:05;15.20;99.90
49218;DHT22;35045;51.194;7.268;2022-10-16T08:40:33;15.20;99.90
49218;DHT22;35045;51.194;7.268;2022-10-16T08:43:19;15.30;99.90
49218;DHT22;35045;51.194;7.268;2022-10-16T08:48:50;15.40;99.90
49218;DHT22;35045;51.194;7.268;2022-10-16T08:51:32;15.40;99.90
49218;DHT22;35045;51.194;7.268;2022-10-16T08:54:02;15.40;99.90
49218;DHT22;35045;51.194;7.268;2022-10-16T08:56:29;15.40;99.90
49218;DHT22;35045;51.194;7.268;2022-10-16T08:58:58;15.40;99.90
49218;DHT22;35045;51.194;7.268;2022-10-16T09:01:39;15.50;99.90
49218;DHT22;35045;51.194;7.268;2022-10-16T09:06:58;15.70;99.90
49218;DHT22;35045;51.194;7.268;2022-10-16T09:12:27;15.80;99.90
49218;DHT22;35045;51.194;7.268;2022-10-16T09:25:32;15.90;99.90
49218;DHT22;35045;51.194;7.268;2022-10-16T09:27:59;15.90;99.90
49218;DHT22;35045;51.194;7.268;2022-10-16T09:30:27;16.10;99.90
49218;DHT22;35045;51.194;7.268;2022-10-16T09:32:57;16.20;99.90
49218;DHT22;35045;51.194;7.268;2022-10-16T09:35:57;16.40;99.90
49218;DHT22;35045;51.194;7.268;2022-10-16T09:38:30;16.50;99.90
49218;DHT22;35045;51.194;7.268;2022-10-16T09:40:58;16.60;99.90
49218;DHT22;35045;51.194;7.268;2022-10-16T09:46:26;16.70;99.90
49218;DHT22;35045;51.194;7.268;2022-10-16T09:48:57;16.70;99.90
49218;DHT22;35045;51.194;7.268;2022-10-16T09:51:32;16.80;99.90
49218;DHT22;35045;51.194;7.268;2022-10-16T09:54:02;16.80;99.90
49218;DHT22;35045;51.194;7.268;2022-10-16T09:56:38;16.70;99.90
49218;DHT22;35045;51.194;7.268;2022-10-16T09:59:11;16.70;99.90
49218;DHT22;35045;51.194;7.268;2022-10-16T10:01:44;16.80;99.90
49218;DHT22;35045;51.194;7.268;2022-10-16T10:04:11;16.90;99.90
49218;DHT22;35045;51.194;7.268;2022-10-16T10:06:48;17.00;99.90
49218;DHT22;35045;51.194;7.268;2022-10-16T10:11:54;17.20;99.90
49218;DHT22;35045;51.194;7.268;2022-10-16T10:14:47;17.20;99.90
49218;DHT22;35045;51.194;7.268;2022-10-16T10:17:20;17.20;99.90
49218;DHT22;35045;51.194;7.268;2022-10-16T10:22:17;17.30;99.90
49218;DHT22;35045;51.194;7.268;2022-10-16T10:24:55;17.20;99.90
49218;DHT22;35045;51.194;7.268;2022-10-16T10:27:27;16.90;99.90
49218;DHT22;35045;51.194;7.268;2022-10-16T10:33:17;17.20;99.90
49218;DHT22;35045;51.194;7.268;2022-10-16T10:38:49;17.20;99.90
49218;DHT22;35045;51.194;7.268;2022-10-16T10:46:41;17.70;99.90
49218;DHT22;35045;51.194;7.268;2022-10-16T10:55:09;17.80;99.90
49218;DHT22;35045;51.194;7.268;2022-10-16T11:06:47;17.60;99.90
49218;DHT22;35045;51.194;7.268;2022-10-16T11:09:24;17.60;99.90
49218;DHT22;35045;51.194;7.268;2022-10-16T11:11:56;17.70;99.90
49218;DHT22;35045;51.194;7.268;2022-10-16T11:14:35;17.70;99.90
49218;DHT22;35045;51.194;7.268;2022-10-16T11:17:09;17.60;99.90
49218;DHT22;35045;51.194;7.268;2022-10-16T11:19:41;17.60;99.90
49218;DHT22;35045;51.194;7.268;2022-10-16T11:22:22;17.60;99.90
49218;DHT22;35045;51.194;7.268;2022-10-16T11:24:59;17.70;99.90
49218;DHT22;35045;51.194;7.268;2022-10-16T11:27:45;17.80;99.90
49218;DHT22;35045;51.194;7.268;2022-10-16T11:30:24;17.80;99.90
49218;DHT22;35045;51.194;7.268;2022-10-16T11:41:35;18.20;99.90
49218;DHT22;35045;51.194;7.268;2022-10-16T11:49:55;18.80;99.90
49218;DHT22;35045;51.194;7.268;2022-10-16T11:55:15;18.50;99.90
49218;DHT22;35045;51.194;7.268;2022-10-16T11:57:46;18.40;99.90
49218;DHT22;35045;51.194;7.268;2022-10-16T12:03:09;18.10;99.90
49218;DHT22;35045;51.194;7.268;2022-10-16T12:06:06;18.30;99.90
49218;DHT22;35045;51.194;7.268;2022-10-16T12:08:39;18.80;99.90
49218;DHT22;35045;51.194;7.268;2022-10-16T12:11:23;19.20;99.90
49218;DHT22;35045;51.194;7.268;2022-10-16T12:13:50;19.70;99.90
49218;DHT22;35045;51.194;7.268;2022-10-16T12:18:44;20.20;99.90
49218;DHT22;35045;51.194;7.268;2022-10-16T12:21:13;20.30;99.90
49218;DHT22;35045;51.194;7.268;2022-10-16T12:23:50;20.40;99.90
49218;DHT22;35045;51.194;7.268;2022-10-16T12:26:28;20.40;99.90
49218;DHT22;35045;51.194;7.268;2022-10-16T12:28:55;20.20;99.90
49218;DHT22;35045;51.194;7.268;2022-10-16T12:31:22;20.00;99.90
49218;DHT22;35045;51.194;7.268;2022-10-16T12:33:58;20.10;99.90
49218;DHT22;35045;51.194;7.268;2022-10-16T12:36:33;19.80;99.90
49218;DHT22;35045;51.194;7.268;2022-10-16T12:39:01;19.60;99.90
49218;DHT22;35045;51.194;7.268;2022-10-16T12:41:32;19.40;99.90
49218;DHT22;35045;51.194;7.268;2022-10-16T12:43:59;19.20;99.90
49218;DHT22;35045;51.194;7.268;2022-10-16T12:51:41;18.80;99.90
49218;DHT22;35045;51.194;7.268;2022-10-16T12:54:29;18.80;99.90
49218;DHT22;35045;51.194;7.268;2022-10-16T13:05:59;18.50;99.90
49218;DHT22;35045;51.194;7.268;2022-10-16T13:08:37;18.50;99.90
49218;DHT22;35045;51.194;7.268;2022-10-16T13:15:01;19.00;99.90
49218;DHT22;35045;51.194;7.268;2022-10-16T13:30:33;20.20;99.90
49218;DHT22;35045;51.194;7.268;2022-10-16T13:33:02;20.00;99.90
49218;DHT22;35045;51.194;7.268;2022-10-16T13:35:33;20.10;99.90
49218;DHT22;35045;51.194;7.268;2022-10-16T13:40:57;20.10;99.90
49218;DHT22;35045;51.194;7.268;2022-10-16T13:43:38;20.00;99.90
49218;DHT22;35045;51.194;7.268;2022-10-16T13:46:18;19.90;99.90
49218;DHT22;35045;51.194;7.268;2022-10-16T13:48:59;19.80;99.90
49218;DHT22;35045;51.194;7.268;2022-10-16T13:51:26;19.70;99.90
49218;DHT22;35045;51.194;7.268;2022-10-16T13:53:55;19.60;99.90
49218;DHT22;35045;51.194;7.268;2022-10-16T13:56:24;19.70;99.90
49218;DHT22;35045;51.194;7.268;2022-10-16T13:59:02;19.60;99.90
49218;DHT22;35045;51.194;7.268;2022-10-16T14:01:43;19.50;99.90
49218;DHT22;35045;51.194;7.268;2022-10-16T14:04:11;19.40;99.90
49218;DHT22;35045;51.194;7.268;2022-10-16T14:06:44;19.20;99.90
49218;DHT22;35045;51.194;7.268;2022-10-16T14:09:24;19.10;99.90
49218;DHT22;35045;51.194;7.268;2022-10-16T14:12:01;19.00;99.90
49218;DHT22;35045;51.194;7.268;2022-10-16T14:14:33;19.00;99.90
49218;DHT22;35045;51.194;7.268;2022-10-16T14:17:00;19.00;99.90
49218;DHT22;35045;51.194;7.268;2022-10-16T14:19:28;19.00;99.90
49218;DHT22;35045;51.194;7.268;2022-10-16T14:21:55;18.90;99.90
49218;DHT22;35045;51.194;7.268;2022-10-16T14:24:30;19.00;99.90
49218;DHT22;35045;51.194;7.268;2022-10-16T14:26:57;18.90;99.90
49218;DHT22;35045;51.194;7.268;2022-10-16T14:29:25;18.80;99.90
49218;DHT22;35045;51.194;7.268;2022-10-16T14:32:00;18.90;99.90
49218;DHT22;35045;51.194;7.268;2022-10-16T14:34:37;18.90;99.90
49218;DHT22;35045;51.194;7.268;2022-10-16T14:37:20;18.80;99.90
49218;DHT22;35045;51.194;7.268;2022-10-16T14:39:49;18.90;99.90
49218;DHT22;35045;51.194;7.268;2022-10-16T14:42:17;18.90;99.90
49218;DHT22;35045;51.194;7.268;2022-10-16T14:44:46;18.90;99.90
49218;DHT22;35045;51.194;7.268;2022-10-16T14:47:17;18.90;99.90
49218;DHT22;35045;51.194;7.268;2022-10-16T14:49:48;18.80;99.90
49218;DHT22;35045;51.194;7.268;2022-10-16T14:52:14;18.70;99.90
49218;DHT22;35045;51.194;7.268;2022-10-16T14:54:41;18.70;99.90
49218;DHT22;35045;51.194;7.268;2022-10-16T14:57:17;18.50;99.90
49218;DHT22;35045;51.194;7.268;2022-10-16T14:59:44;18.50;99.90
49218;DHT22;35045;51.194;7.268;2022-10-16T15:02:33;18.40;99.90
49218;DHT22;35045;51.194;7.268;2022-10-16T15:05:18;18.40;99.90
49218;DHT22;35045;51.194;7.268;2022-10-16T15:07:45;18.30;99.90
49218;DHT22;35045;51.194;7.268;2022-10-16T15:10:16;18.30;99.90
49218;DHT22;35045;51.194;7.268;2022-10-16T15:12:43;18.20;99.90
49218;DHT22;35045;51.194;7.268;2022-10-16T15:17:47;18.30;99.90
49218;DHT22;35045;51.194;7.268;2022-10-16T15:20:14;18.20;99.90
49218;DHT22;35045;51.194;7.268;2022-10-16T15:22:40;18.20;99.90
49218;DHT22;35045;51.194;7.268;2022-10-16T15:25:35;18.20;99.90
49218;DHT22;35045;51.194;7.268;2022-10-16T15:28:04;18.10;99.90
49218;DHT22;35045;51.194;7.268;2022-10-16T15:30:30;18.00;99.90
49218;DHT22;35045;51.194;7.268;2022-10-16T15:32:57;18.00;99.90
49218;DHT22;35045;51.194;7.268;2022-10-16T15:35:23;18.00;99.90
49218;DHT22;35045;51.194;7.268;2022-10-16T15:37:49;17.90;99.90
49218;DHT22;35045;51.194;7.268;2022-10-16T15:40:17;17.90;99.90
49218;DHT22;35045;51.194;7.268;2022-10-16T15:42:43;17.90;99.90
49218;DHT22;35045;51.194;7.268;2022-10-16T15:45:11;17.90;99.90
49218;DHT22;35045;51.194;7.268;2022-10-16T15:47:37;17.90;99.90
49218;DHT22;35045;51.194;7.268;2022-10-16T15:50:05;17.90;99.90
49218;DHT22;35045;51.194;7.268;2022-10-16T15:52:31;17.90;99.90
49218;DHT22;35045;51.194;7.268;2022-10-16T15:54:58;17.80;99.90
49218;DHT22;35045;51.194;7.268;2022-10-16T15:57:25;17.80;99.90
49218;DHT22;35045;51.194;7.268;2022-10-16T15:59:51;17.80;99.90
49218;DHT22;35045;51.194;7.268;2022-10-16T16:02:17;17.80;99.90
49218;DHT22;35045;51.194;7.268;2022-10-16T16:04:43;17.70;99.90
49218;DHT22;35045;51.194;7.268;2022-10-16T16:07:10;17.70;99.90
49218;DHT22;35045;51.194;7.268;2022-10-16T16:09:36;17.60;99.90
49218;DHT22;35045;51.194;7.268;2022-10-16T16:12:02;17.60;99.90
49218;DHT22;35045;51.194;7.268;2022-10-16T16:14:29;17.50;99.90
49218;DHT22;35045;51.194;7.268;2022-10-16T16:16:55;17.40;99.90
49218;DHT22;35045;51.194;7.268;2022-10-16T16:19:21;17.40;99.90
49218;DHT22;35045;51.194;7.268;2022-10-16T16:21:48;17.20;99.90
49218;DHT22;35045;51.194;7.268;2022-10-16T16:24:15;17.20;99.90
49218;DHT22;35045;51.194;7.268;2022-10-16T16:26:41;17.20;99.90
49218;DHT22;35045;51.194;7.268;2022-10-16T16:29:12;17.20;99.90
49218;DHT22;35045;51.194;7.268;2022-10-16T16:31:41;17.10;99.90
49218;DHT22;35045;51.194;7.268;2022-10-16T16:34:07;17.10;99.90
49218;DHT22;35045;51.194;7.268;2022-10-16T16:36:34;17.00;99.90
49218;DHT22;35045;51.194;7.268;2022-10-16T16:39:01;17.00;99.90
49218;DHT22;35045;51.194;7.268;2022-10-16T16:41:29;16.90;99.90
49218;DHT22;35045;51.194;7.268;2022-10-16T16:44:01;16.90;99.90
49218;DHT22;35045;51.194;7.268;2022-10-16T16:46:28;16.90;99.90
49218;DHT22;35045;51.194;7.268;2022-10-16T16:48:54;16.90;99.90
49218;DHT22;35045;51.194;7.268;2022-10-16T16:51:21;16.90;99.90
49218;DHT22;35045;51.194;7.268;2022-10-16T16:53:50;16.80;99.90
49218;DHT22;35045;51.194;7.268;2022-10-16T16:56:17;16.80;99.90
49218;DHT22;35045;51.194;7.268;2022-10-16T16:58:51;16.80;99.90
49218;DHT22;35045;51.194;7.268;2022-10-16T17:01:18;16.70;99.90
49218;DHT22;35045;51.194;7.268;2022-10-16T17:03:45;16.70;99.90
49218;DHT22;35045;51.194;7.268;2022-10-16T17:06:13;16.70;99.90
49218;DHT22;35045;51.194;7.268;2022-10-16T17:08:40;16.70;99.90
49218;DHT22;35045;51.194;7.268;2022-10-16T17:11:16;16.70;99.90
49218;DHT22;35045;51.194;7.268;2022-10-16T17:13:42;16.60;99.90
49218;DHT22;35045;51.194;7.268;2022-10-16T17:16:09;16.60;99.90
49218;DHT22;35045;51.194;7.268;2022-10-16T17:18:35;16.60;99.90
49218;DHT22;35045;51.194;7.268;2022-10-16T17:21:04;16.50;99.90
49218;DHT22;35045;51.194;7.268;2022-10-16T17:23:31;16.50;99.90
49218;DHT22;35045;51.194;7.268;2022-10-16T17:26:06;16.50;99.90
49218;DHT22;35045;51.194;7.268;2022-10-16T17:28:33;16.50;99.90
49218;DHT22;35045;51.194;7.268;2022-10-16T17:31:11;16.40;99.90
49218;DHT22;35045;51.194;7.268;2022-10-16T17:33:38;16.40;99.90
49218;DHT22;35045;51.194;7.268;2022-10-16T17:36:05;16.40;99.90
49218;DHT22;35045;51.194;7.268;2022-10-16T17:38:32;16.40;99.90
49218;DHT22;35045;51.194;7.268;2022-10-16T17:41:08;16.40;99.90
49218;DHT22;35045;51.194;7.268;2022-10-16T17:43:36;16.40;99.90
49218;DHT22;35045;51.194;7.268;2022-10-16T17:46:02;16.40;99.90
49218;DHT22;35045;51.194;7.268;2022-10-16T17:48:29;16.40;99.90
49218;DHT22;35045;51.194;7.268;2022-10-16T17:50:55;16.40;99.90
49218;DHT22;35045;51.194;7.268;2022-10-16T17:53:21;16.40;99.90